Time;durP1;ratioP1;P1;durP2;ratioP2;P2;SDS_P1;SDS_P2;PMS_P1;PMS_P2;Temp;Humidity;BMP_temperature;BMP_pressure;BME280_temperature;BME280_humidity;BME280_pressure;Samples;Min_cycle;Max_cycle;Signal;HPM_P1;HPM_P2
2022/08/01 00:00:39;;;;;;;4.80;3.30;;;23.10;57.20;;;;;;5063258;28;20190;-73
2022/08/01 00:03:05;;;;;;;3.77;2.80;;;23.00;57.30;;;;;;5068407;28;20637;-72
2022/08/01 00:05:31;;;;;;;5.13;3.10;;;23.00;57.40;;;;;;5063015;28;20180;-71
2022/08/01 00:07:57;;;;;;;4.70;2.67;;;23.00;57.40;;;;;;5065383;28;20222;-74
2022/08/01 00:10:23;;;;;;;4.47;3.37;;;23.00;57.70;;;;;;5066606;28;20534;-74
2022/08/01 00:12:48;;;;;;;4.40;3.13;;;22.90;57.80;;;;;;5067409;28;20213;-72
2022/08/01 00:15:16;;;;;;;6.00;3.10;;;22.90;58.00;;;;;;5076674;28;20419;-72
2022/08/01 00:17:43;;;;;;;4.93;3.47;;;22.80;58.00;;;;;;5069214;28;20217;-72
2022/08/01 00:20:11;;;;;;;4.50;3.80;;;22.80;58.10;;;;;;5080942;28;20425;-71
2022/08/01 00:22:36;;;;;;;4.00;3.00;;;22.80;58.10;;;;;;5077535;28;20494;-73
2022/08/01 00:25:03;;;;;;;5.73;3.60;;;22.80;58.50;;;;;;5061547;28;20488;-73
2022/08/01 00:27:29;;;;;;;4.87;2.87;;;22.80;58.50;;;;;;5067059;28;20205;-72
2022/08/01 00:29:55;;;;;;;6.80;3.50;;;22.80;58.50;;;;;;5062957;28;20477;-74
2022/08/01 00:32:20;;;;;;;6.03;3.63;;;22.70;58.70;;;;;;5069197;28;20912;-73
2022/08/01 00:34:46;;;;;;;5.50;3.50;;;22.70;58.80;;;;;;5071527;28;20183;-73
2022/08/01 00:37:12;;;;;;;4.00;3.17;;;22.60;58.90;;;;;;5068885;28;20219;-72
2022/08/01 00:39:37;;;;;;;4.30;2.77;;;22.60;59.10;;;;;;5067898;28;20205;-73
2022/08/01 00:42:08;;;;;;;5.37;3.03;;;22.60;59.20;;;;;;5070748;28;20207;-73
2022/08/01 00:44:34;;;;;;;5.17;3.70;;;22.50;59.30;;;;;;5072295;28;20198;-73
2022/08/01 00:46:59;;;;;;;5.03;3.30;;;22.50;59.60;;;;;;5068865;28;20436;-73
2022/08/01 00:49:25;;;;;;;3.83;3.10;;;22.50;59.70;;;;;;5062975;28;20488;-73
2022/08/01 00:51:51;;;;;;;5.23;3.60;;;22.50;59.70;;;;;;5070651;28;20188;-73
2022/08/01 00:54:16;;;;;;;3.97;3.10;;;22.50;59.90;;;;;;5083895;28;20251;-73
2022/08/01 00:56:43;;;;;;;4.23;3.20;;;22.40;60.10;;;;;;5087598;28;20263;-73
2022/08/01 00:59:10;;;;;;;4.97;3.70;;;22.30;60.40;;;;;;5083175;28;20188;-74
2022/08/01 01:01:36;;;;;;;4.83;3.70;;;22.20;60.70;;;;;;5066867;28;20507;-74
2022/08/01 01:04:02;;;;;;;5.13;3.53;;;22.20;61.00;;;;;;5071780;28;20890;-74
2022/08/01 01:06:47;;;;;;;6.50;3.80;;;22.10;61.30;;;;;;5075064;28;20195;-73
2022/08/01 01:09:24;;;;;;;4.67;3.53;;;22.10;61.60;;;;;;5064488;28;20190;-74
2022/08/01 01:12:12;;;;;;;4.40;3.10;;;22.10;61.70;;;;;;5068526;28;20425;-73
2022/08/01 01:15:02;;;;;;;5.27;3.00;;;22.00;62.00;;;;;;5066845;28;20425;-72
2022/08/01 01:17:35;;;;;;;7.53;3.80;;;21.90;62.30;;;;;;5062453;28;20512;-73
2022/08/01 01:20:03;;;;;;;6.93;3.30;;;21.90;62.50;;;;;;5069669;28;20453;-73
2022/08/01 01:22:47;;;;;;;4.73;3.63;;;21.90;62.50;;;;;;5071577;28;20433;-72
2022/08/01 01:25:37;;;;;;;7.33;3.30;;;21.90;62.60;;;;;;5066642;28;20421;-72
2022/08/01 01:28:03;;;;;;;4.77;3.50;;;21.90;62.80;;;;;;5066964;28;20467;-72
2022/08/01 01:30:30;;;;;;;5.27;3.47;;;21.90;63.10;;;;;;5064104;28;20443;-73
2022/08/01 01:33:00;;;;;;;6.17;4.00;;;21.80;63.20;;;;;;5064768;28;20219;-72
2022/08/01 01:35:31;;;;;;;5.17;3.60;;;21.80;63.40;;;;;;5065029;28;20421;-73
2022/08/01 01:38:17;;;;;;;4.57;3.57;;;21.80;63.20;;;;;;5068052;28;20494;-73
2022/08/01 01:40:45;;;;;;;6.33;4.50;;;21.80;63.40;;;;;;5062704;28;20539;-73
2022/08/01 01:43:12;;;;;;;5.77;3.87;;;21.80;63.70;;;;;;5065757;28;20499;-73
2022/08/01 01:45:39;;;;;;;6.77;3.97;;;21.80;64.20;;;;;;5067418;28;20468;-71
2022/08/01 01:48:07;;;;;;;8.00;4.37;;;21.80;64.10;;;;;;5068454;28;20488;-73
2022/08/01 01:50:34;;;;;;;5.23;4.00;;;21.80;64.10;;;;;;5066276;28;20416;-72
2022/08/01 01:53:02;;;;;;;4.10;2.97;;;21.70;64.20;;;;;;5069105;28;20480;-73
2022/08/01 01:55:29;;;;;;;6.33;4.30;;;21.60;64.50;;;;;;5069131;28;20475;-74
2022/08/01 01:57:56;;;;;;;4.40;3.43;;;21.60;64.50;;;;;;5063545;28;20473;-73
2022/08/01 02:00:23;;;;;;;5.20;3.83;;;21.60;64.70;;;;;;5065951;28;20477;-73
2022/08/01 02:02:51;;;;;;;8.83;3.53;;;21.60;65.00;;;;;;5071091;28;20840;-72
2022/08/01 02:05:17;;;;;;;5.33;3.30;;;21.60;64.80;;;;;;5069798;28;20461;-74
2022/08/01 02:07:43;;;;;;;5.80;3.63;;;21.50;65.40;;;;;;5064463;28;20469;-73
2022/08/01 02:10:11;;;;;;;4.60;3.50;;;21.50;65.30;;;;;;5062106;28;20426;-73
2022/08/01 02:12:40;;;;;;;5.40;3.67;;;21.50;65.40;;;;;;5066721;28;20516;-73
2022/08/01 02:15:09;;;;;;;4.93;3.57;;;21.50;65.60;;;;;;5064388;28;20503;-73
2022/08/01 02:17:39;;;;;;;7.70;4.47;;;21.30;66.00;;;;;;5064250;28;20473;-74
2022/08/01 02:20:05;;;;;;;6.70;4.20;;;21.30;66.30;;;;;;5063860;28;20477;-74
2022/08/01 02:22:36;;;;;;;6.43;3.93;;;21.30;66.40;;;;;;5070430;28;20505;-73
2022/08/01 02:25:25;;;;;;;4.77;3.53;;;21.30;66.40;;;;;;5065121;28;20441;-72
2022/08/01 02:28:06;;;;;;;6.40;3.70;;;21.20;66.90;;;;;;5064880;28;20507;-73
2022/08/01 02:30:38;;;;;;;7.03;3.30;;;21.10;67.30;;;;;;5068242;28;20421;-72
2022/08/01 02:33:16;;;;;;;5.03;3.63;;;21.10;67.30;;;;;;5069755;28;20474;-72
2022/08/01 02:35:45;;;;;;;5.87;3.80;;;21.10;67.50;;;;;;5062868;28;20906;-70
2022/08/01 02:38:13;;;;;;;4.73;3.93;;;21.10;67.70;;;;;;5060333;28;20503;-73
2022/08/01 02:40:43;;;;;;;4.90;3.90;;;21.00;67.90;;;;;;5063789;28;20473;-72
2022/08/01 02:43:10;;;;;;;5.17;3.80;;;21.00;68.00;;;;;;5060383;28;20470;-72
2022/08/01 02:45:39;;;;;;;6.80;3.70;;;20.90;68.20;;;;;;5064480;28;20420;-71
2022/08/01 02:48:14;;;;;;;5.17;3.77;;;20.90;68.30;;;;;;5065862;28;20462;-74
2022/08/01 02:50:43;;;;;;;4.73;3.30;;;20.90;68.60;;;;;;5061275;28;20898;-73
2022/08/01 02:53:11;;;;;;;4.00;3.40;;;20.90;68.80;;;;;;5063909;28;20459;-73
2022/08/01 02:55:39;;;;;;;5.67;3.43;;;20.90;69.10;;;;;;5065341;28;20423;-73
2022/08/01 02:58:08;;;;;;;4.60;3.50;;;20.80;69.40;;;;;;5066670;28;20454;-73
2022/08/01 03:00:35;;;;;;;5.50;3.60;;;20.80;69.50;;;;;;5068425;28;20442;-72
2022/08/01 03:03:03;;;;;;;4.97;3.50;;;20.80;69.50;;;;;;5071465;28;20429;-72
2022/08/01 03:05:31;;;;;;;5.37;3.80;;;20.80;69.70;;;;;;5082197;28;20454;-73
2022/08/01 03:07:59;;;;;;;9.10;4.33;;;20.80;69.80;;;;;;5079827;28;20462;-72
2022/08/01 03:10:28;;;;;;;8.73;4.23;;;20.70;70.10;;;;;;5077955;28;20934;-74
2022/08/01 03:12:55;;;;;;;5.33;3.77;;;20.70;70.20;;;;;;5076319;28;20564;-71
2022/08/01 03:15:22;;;;;;;7.63;4.23;;;20.60;70.50;;;;;;5069302;28;20510;-72
2022/08/01 03:17:51;;;;;;;6.23;4.10;;;20.60;70.80;;;;;;5061806;28;20561;-72
2022/08/01 03:20:18;;;;;;;6.30;4.10;;;20.50;71.10;;;;;;5066874;28;20462;-73
2022/08/01 03:22:47;;;;;;;6.13;3.83;;;20.40;71.40;;;;;;5068061;28;20432;-72
2022/08/01 03:25:15;;;;;;;6.13;4.50;;;20.50;71.40;;;;;;5067547;28;20419;-72
2022/08/01 03:27:43;;;;;;;7.70;4.20;;;20.50;71.60;;;;;;5058044;28;20468;-72
2022/08/01 03:30:10;;;;;;;5.07;3.77;;;20.50;71.70;;;;;;5065261;28;20916;-71
2022/08/01 03:32:36;;;;;;;7.50;3.70;;;20.50;71.70;;;;;;5066281;28;20474;-73
2022/08/01 03:35:01;;;;;;;6.23;3.97;;;20.50;72.00;;;;;;5065581;28;20453;-73
2022/08/01 03:37:40;;;;;;;7.33;3.97;;;20.50;72.00;;;;;;5059813;28;20205;-72
2022/08/01 03:40:11;;;;;;;6.93;3.83;;;20.60;72.00;;;;;;5066151;28;20205;-73
2022/08/01 03:42:46;;;;;;;3.50;3.23;;;20.60;72.00;;;;;;5052423;28;20429;-72
2022/08/01 03:45:19;;;;;;;5.70;3.93;;;20.50;72.10;;;;;;5062078;28;20438;-73
2022/08/01 03:47:48;;;;;;;5.30;3.90;;;20.60;72.30;;;;;;5070088;28;20499;-73
2022/08/01 03:50:16;;;;;;;6.10;4.10;;;20.60;72.30;;;;;;5064869;28;20460;-72
2022/08/01 03:52:44;;;;;;;5.77;3.50;;;20.60;72.30;;;;;;5062635;28;20463;-72
2022/08/01 03:55:12;;;;;;;5.40;3.50;;;20.50;72.60;;;;;;5065958;28;20416;-73
2022/08/01 03:57:39;;;;;;;5.40;3.60;;;20.60;72.40;;;;;;5063220;28;20459;-73
2022/08/01 04:00:08;;;;;;;5.80;3.20;;;20.60;72.60;;;;;;5059652;28;20434;-74
2022/08/01 04:02:35;;;;;;;5.07;3.47;;;20.60;72.60;;;;;;5064566;28;20514;-73
2022/08/01 04:05:02;;;;;;;6.67;4.20;;;20.60;72.40;;;;;;5069482;28;20430;-72
2022/08/01 04:07:31;;;;;;;4.93;3.23;;;20.60;72.70;;;;;;5065975;28;20462;-72
2022/08/01 04:09:57;;;;;;;5.80;3.93;;;20.60;72.70;;;;;;5066378;28;20429;-73
2022/08/01 04:12:23;;;;;;;5.87;3.93;;;20.70;72.60;;;;;;5066900;28;20473;-73
2022/08/01 04:14:49;;;;;;;4.33;3.17;;;20.60;72.90;;;;;;5066062;28;20415;-72
2022/08/01 04:17:16;;;;;;;6.03;4.13;;;20.60;72.90;;;;;;5064443;28;20523;-72
2022/08/01 04:19:42;;;;;;;6.00;3.70;;;20.60;72.90;;;;;;5064386;28;20426;-73
2022/08/01 04:22:09;;;;;;;5.10;3.63;;;20.70;72.90;;;;;;5065442;28;20973;-72
2022/08/01 04:24:36;;;;;;;8.23;3.53;;;20.70;72.90;;;;;;5065351;28;20792;-73
2022/08/01 04:27:05;;;;;;;4.43;3.23;;;20.70;72.90;;;;;;5063935;28;20546;-73
2022/08/01 04:29:32;;;;;;;5.87;3.73;;;20.70;72.90;;;;;;5052889;28;20423;-73
2022/08/01 04:32:00;;;;;;;4.93;3.37;;;20.80;73.00;;;;;;5065949;28;20518;-72
2022/08/01 04:34:30;;;;;;;5.50;3.40;;;20.80;72.90;;;;;;5058721;28;20423;-75
2022/08/01 04:36:57;;;;;;;4.20;3.50;;;20.80;73.00;;;;;;5064762;28;20503;-73
2022/08/01 04:39:29;;;;;;;5.83;4.00;;;20.90;73.00;;;;;;5061940;28;20415;-73
2022/08/01 04:41:56;;;;;;;4.13;3.17;;;20.90;72.90;;;;;;5061582;28;20799;-72
2022/08/01 04:44:23;;;;;;;5.70;3.47;;;20.90;72.70;;;;;;5069032;28;20445;-74
2022/08/01 04:46:54;;;;;;;4.33;3.13;;;20.90;73.00;;;;;;5063359;28;20412;-73
2022/08/01 04:49:20;;;;;;;5.30;3.20;;;20.90;73.20;;;;;;5067577;28;20453;-72
2022/08/01 04:51:51;;;;;;;3.93;2.90;;;20.80;73.50;;;;;;5064479;28;20422;-71
2022/08/01 04:54:16;;;;;;;4.07;3.27;;;20.80;73.60;;;;;;5069699;28;20771;-72
2022/08/01 04:56:42;;;;;;;4.67;3.20;;;20.80;73.90;;;;;;5072926;28;20489;-74
2022/08/01 05:01:52;;;;;;;4.73;3.80;;;20.80;74.00;;;;;;5070868;28;20571;-72
2022/08/01 05:04:18;;;;;;;4.50;2.90;;;20.80;74.00;;;;;;5069058;28;20431;-74
2022/08/01 05:06:43;;;;;;;6.03;3.80;;;20.80;74.20;;;;;;5065177;28;20190;-74
2022/08/01 05:09:09;;;;;;;4.97;3.10;;;20.80;74.30;;;;;;5061231;28;21226;-74
2022/08/01 05:11:35;;;;;;;4.73;2.90;;;20.90;74.30;;;;;;5063333;28;20179;-74
2022/08/01 05:14:00;;;;;;;5.90;3.03;;;21.10;74.20;;;;;;5065475;28;20683;-75
2022/08/01 05:16:26;;;;;;;3.83;2.60;;;21.20;73.90;;;;;;5065490;28;20198;-73
2022/08/01 05:18:52;;;;;;;4.70;3.17;;;21.20;73.90;;;;;;5064418;28;20568;-74
2022/08/01 05:21:17;;;;;;;5.83;3.53;;;21.30;73.90;;;;;;5067286;28;20186;-73
2022/08/01 05:23:43;;;;;;;5.93;3.30;;;21.40;73.70;;;;;;5069759;28;20286;-73
2022/08/01 05:26:10;;;;;;;3.60;3.13;;;21.50;73.50;;;;;;5068142;28;20197;-74
2022/08/01 05:28:35;;;;;;;6.03;3.07;;;21.50;73.00;;;;;;5064548;28;20211;-74
2022/08/01 05:31:01;;;;;;;7.00;4.00;;;21.50;72.90;;;;;;5068162;28;20456;-76
2022/08/01 05:33:26;;;;;;;5.30;3.70;;;21.60;72.90;;;;;;5067297;28;20296;-74
2022/08/01 05:35:52;;;;;;;5.57;3.80;;;21.60;72.40;;;;;;5063645;28;20560;-73
2022/08/01 05:38:17;;;;;;;3.83;3.00;;;21.60;72.70;;;;;;5067877;28;20293;-74
2022/08/01 05:40:43;;;;;;;4.90;3.47;;;21.60;73.00;;;;;;5061650;28;20198;-74
2022/08/01 05:43:09;;;;;;;5.13;3.10;;;21.60;73.30;;;;;;5068125;28;20320;-74
2022/08/01 05:45:34;;;;;;;6.93;3.33;;;21.60;73.20;;;;;;5062290;28;20243;-73
2022/08/01 05:48:00;;;;;;;7.03;2.73;;;21.70;73.20;;;;;;5068994;28;20223;-72
2022/08/01 05:50:25;;;;;;;4.40;2.77;;;21.70;73.20;;;;;;5067317;28;20192;-71
2022/08/01 05:52:51;;;;;;;6.53;2.97;;;21.80;73.20;;;;;;5069867;28;20226;-71
2022/08/01 05:55:16;;;;;;;4.80;2.57;;;21.90;73.20;;;;;;5069636;28;20264;-71
2022/08/01 05:57:42;;;;;;;4.43;2.97;;;21.90;73.00;;;;;;5062772;28;20260;-72
2022/08/01 06:00:09;;;;;;;3.70;2.50;;;22.10;72.90;;;;;;5065479;28;20191;-71
2022/08/01 06:02:39;;;;;;;4.30;2.83;;;22.20;72.60;;;;;;5067708;28;20238;-72
2022/08/01 06:05:05;;;;;;;6.50;2.57;;;22.30;72.30;;;;;;5070628;28;20422;-72
2022/08/01 06:07:30;;;;;;;3.40;2.40;;;22.40;72.10;;;;;;5065074;28;20594;-71
2022/08/01 06:09:56;;;;;;;5.37;2.70;;;22.40;72.00;;;;;;5064405;28;20455;-72
2022/08/01 06:12:22;;;;;;;4.87;2.70;;;22.50;71.70;;;;;;5063266;28;20223;-72
2022/08/01 06:14:47;;;;;;;5.23;3.20;;;22.60;71.60;;;;;;5067399;28;20208;-73
2022/08/01 06:17:13;;;;;;;5.60;3.00;;;22.70;71.40;;;;;;5061718;28;20311;-73
2022/08/01 06:19:38;;;;;;;4.80;2.63;;;22.70;71.40;;;;;;5065686;28;20767;-72
2022/08/01 06:22:04;;;;;;;3.13;2.37;;;22.80;71.10;;;;;;5068320;28;20309;-72
2022/08/01 06:24:30;;;;;;;3.50;2.30;;;22.90;71.10;;;;;;5068813;28;20193;-71
2022/08/01 06:26:55;;;;;;;4.10;2.33;;;22.90;71.00;;;;;;5068041;28;20196;-72
2022/08/01 06:29:21;;;;;;;4.53;1.97;;;22.90;71.10;;;;;;5069361;28;21067;-72
2022/08/01 06:31:46;;;;;;;3.73;2.70;;;22.90;71.30;;;;;;5060800;28;20227;-72
2022/08/01 06:34:12;;;;;;;3.10;2.03;;;23.00;71.00;;;;;;5068175;28;20241;-72
2022/08/01 06:36:37;;;;;;;4.70;2.40;;;23.00;71.30;;;;;;5067469;28;20185;-72
2022/08/01 06:39:03;;;;;;;2.90;2.27;;;23.00;71.40;;;;;;5065612;28;20212;-72
2022/08/01 06:41:28;;;;;;;4.00;1.90;;;22.90;71.60;;;;;;5064934;28;20244;-71
2022/08/01 06:43:54;;;;;;;2.70;2.00;;;23.00;71.60;;;;;;5066538;28;20252;-70
2022/08/01 06:46:20;;;;;;;2.30;1.97;;;23.00;71.60;;;;;;5066102;28;20194;-73
2022/08/01 06:48:45;;;;;;;4.53;2.50;;;23.00;71.70;;;;;;5062948;28;20610;-71
2022/08/01 06:51:15;;;;;;;3.30;2.43;;;23.10;71.30;;;;;;5067468;28;20612;-72
2022/08/01 06:53:40;;;;;;;4.70;2.27;;;23.20;71.00;;;;;;5067708;28;20620;-72
2022/08/01 06:56:08;;;;;;;3.77;2.43;;;23.10;70.50;;;;;;5069840;28;20421;-71
2022/08/01 06:58:34;;;;;;;6.80;2.63;;;23.10;70.70;;;;;;5063851;28;20221;-73
2022/08/01 07:01:00;;;;;;;3.90;2.63;;;23.20;70.50;;;;;;5069714;28;20456;-73
2022/08/01 07:03:26;;;;;;;2.63;2.07;;;23.20;70.50;;;;;;5069993;28;20435;-72
2022/08/01 07:05:52;;;;;;;4.73;2.40;;;23.40;69.50;;;;;;5069637;28;20428;-72
2022/08/01 07:08:18;;;;;;;3.03;2.40;;;23.40;69.40;;;;;;5063995;28;21001;-73
2022/08/01 07:10:43;;;;;;;3.93;2.10;;;23.50;69.20;;;;;;5069659;28;20198;-71
2022/08/01 07:13:09;;;;;;;6.67;2.40;;;23.50;69.10;;;;;;5070264;28;20214;-71
2022/08/01 07:15:35;;;;;;;3.50;2.23;;;23.60;68.90;;;;;;5065774;28;20603;-71
2022/08/01 07:18:03;;;;;;;2.67;2.17;;;23.60;68.60;;;;;;5062294;28;20272;-72
2022/08/01 07:20:29;;;;;;;3.47;2.10;;;23.40;69.20;;;;;;5067822;28;20597;-70
2022/08/01 07:22:54;;;;;;;3.93;2.73;;;23.50;69.20;;;;;;5067574;28;20432;-73
2022/08/01 07:25:20;;;;;;;6.20;2.97;;;23.60;68.80;;;;;;5068223;28;20191;-72
2022/08/01 07:27:46;;;;;;;2.80;2.00;;;23.70;68.80;;;;;;5062679;28;20591;-74
2022/08/01 07:30:12;;;;;;;3.80;2.57;;;23.90;68.20;;;;;;5068670;28;20187;-73
2022/08/01 07:32:37;;;;;;;3.30;2.50;;;24.00;67.70;;;;;;5060279;28;20207;-73
2022/08/01 07:35:03;;;;;;;2.57;2.30;;;24.10;67.60;;;;;;5068882;28;20429;-72
2022/08/01 07:37:29;;;;;;;3.63;2.40;;;24.00;67.30;;;;;;5064735;28;20211;-72
2022/08/01 07:39:54;;;;;;;3.50;2.57;;;24.10;67.20;;;;;;5068134;28;20423;-72
2022/08/01 07:42:20;;;;;;;3.80;2.83;;;24.20;66.40;;;;;;5063808;28;20557;-73
2022/08/01 07:44:46;;;;;;;4.97;2.53;;;24.20;66.40;;;;;;5069462;28;20187;-72
2022/08/01 07:47:11;;;;;;;4.73;2.83;;;24.00;67.20;;;;;;5060285;28;20317;-72
2022/08/01 07:49:37;;;;;;;8.20;2.60;;;24.20;66.40;;;;;;5064228;28;20596;-72
2022/08/01 07:52:03;;;;;;;5.20;2.77;;;24.30;65.60;;;;;;5060683;28;20191;-72
2022/08/01 07:54:29;;;;;;;4.50;2.50;;;24.50;65.30;;;;;;5063398;28;20280;-72
2022/08/01 07:56:55;;;;;;;3.13;2.70;;;24.60;65.30;;;;;;5066955;28;20968;-72
2022/08/01 07:59:22;;;;;;;4.13;3.07;;;24.60;65.00;;;;;;5062611;28;20276;-72
2022/08/01 08:01:50;;;;;;;4.83;2.57;;;24.80;64.40;;;;;;5060446;28;20414;-73
2022/08/01 08:04:16;;;;;;;3.50;2.80;;;24.80;64.10;;;;;;5069549;28;20411;-73
2022/08/01 08:06:43;;;;;;;5.30;3.20;;;24.80;64.20;;;;;;5062097;28;20416;-71
2022/08/01 08:09:08;;;;;;;4.70;3.10;;;24.90;64.10;;;;;;5066951;28;20528;-73
2022/08/01 08:11:34;;;;;;;5.57;3.20;;;25.00;63.20;;;;;;5067048;28;20519;-73
2022/08/01 08:13:59;;;;;;;4.23;2.70;;;25.20;63.10;;;;;;5062397;28;20210;-72
2022/08/01 08:16:26;;;;;;;4.30;3.10;;;25.00;62.90;;;;;;5061667;28;20639;-72
2022/08/01 08:18:52;;;;;;;5.50;3.20;;;25.00;63.20;;;;;;5060903;28;20323;-72
2022/08/01 08:21:17;;;;;;;3.63;3.00;;;25.10;63.10;;;;;;5063263;28;20423;-72
2022/08/01 08:26:27;;;;;;;3.70;2.67;;;25.50;62.20;;;;;;5062905;28;20242;-71
2022/08/01 08:28:52;;;;;;;5.60;3.27;;;25.20;62.60;;;;;;5062578;28;20450;-73
2022/08/01 08:31:18;;;;;;;5.60;3.30;;;25.30;62.80;;;;;;5066206;28;20262;-72
2022/08/01 08:33:43;;;;;;;5.03;3.40;;;25.40;62.30;;;;;;5065696;28;20220;-73
2022/08/01 08:36:10;;;;;;;4.17;2.83;;;25.20;62.90;;;;;;5062451;28;20217;-72
2022/08/01 08:38:36;;;;;;;6.17;3.50;;;24.90;63.50;;;;;;5060983;28;20659;-73
2022/08/01 08:41:02;;;;;;;4.77;2.80;;;24.80;64.40;;;;;;5062793;28;20434;-73
2022/08/01 08:43:28;;;;;;;4.57;3.60;;;24.80;64.20;;;;;;5066927;28;20180;-73
2022/08/01 08:45:54;;;;;;;4.50;3.20;;;24.80;64.10;;;;;;5063072;28;20426;-71
2022/08/01 08:48:20;;;;;;;4.27;3.47;;;25.00;63.80;;;;;;5064350;28;20215;-73
2022/08/01 08:50:47;;;;;;;7.30;4.30;;;25.30;63.10;;;;;;5063024;28;20646;-73
2022/08/01 08:53:13;;;;;;;5.03;3.33;;;25.70;62.30;;;;;;5069354;28;20529;-72
2022/08/01 08:55:42;;;;;;;4.50;3.20;;;25.50;62.60;;;;;;5073558;28;20510;-71
2022/08/01 08:58:12;;;;;;;7.63;3.87;;;25.30;63.20;;;;;;5069596;28;20486;-71
2022/08/01 09:00:41;;;;;;;6.93;3.47;;;24.90;64.40;;;;;;5067918;28;20420;-75
2022/08/01 09:03:06;;;;;;;5.70;3.30;;;25.10;63.90;;;;;;5068825;28;20471;-72
2022/08/01 09:05:32;;;;;;;5.70;3.53;;;25.30;63.50;;;;;;5066407;28;20456;-72
2022/08/01 09:07:58;;;;;;;5.87;4.00;;;25.40;63.10;;;;;;5064526;28;20248;-72
2022/08/01 09:10:23;;;;;;;6.43;4.10;;;25.40;62.90;;;;;;5070565;28;20185;-72
2022/08/01 09:13:04;;;;;;;8.40;5.20;;;25.40;62.80;;;;;;5064653;28;20209;-73
2022/08/01 09:15:47;;;;;;;7.27;4.23;;;25.20;63.50;;;;;;5063835;28;20221;-72
2022/08/01 09:18:31;;;;;;;6.80;5.03;;;25.60;62.90;;;;;;5071413;28;20488;-73
2022/08/01 09:21:06;;;;;;;9.03;5.50;;;25.40;62.60;;;;;;5063470;28;20427;-72
2022/08/01 09:23:34;;;;;;;7.90;5.73;;;25.70;62.00;;;;;;5070073;28;20441;-73
2022/08/01 09:26:00;;;;;;;8.30;5.67;;;25.70;62.00;;;;;;5072217;28;20423;-71
2022/08/01 09:28:32;;;;;;;7.83;5.90;;;25.80;61.60;;;;;;5056945;28;20546;-73
2022/08/01 09:30:58;;;;;;;12.77;8.37;;;25.80;61.60;;;;;;5064309;28;20589;-72
2022/08/01 09:33:24;;;;;;;12.73;8.27;;;25.70;61.70;;;;;;5067173;28;20461;-72
2022/08/01 09:35:55;;;;;;;18.03;10.47;;;25.70;61.90;;;;;;5063648;28;20447;-74
2022/08/01 09:38:23;;;;;;;13.23;10.37;;;25.80;61.30;;;;;;5070876;28;20456;-71
2022/08/01 09:40:57;;;;;;;12.30;9.10;;;25.70;61.70;;;;;;5069745;28;20907;-73
2022/08/01 09:43:26;;;;;;;12.73;7.70;;;26.00;60.90;;;;;;5065638;28;20425;-72
2022/08/01 09:45:52;;;;;;;11.17;7.90;;;26.30;60.40;;;;;;5071354;28;20432;-73
2022/08/01 09:48:18;;;;;;;8.93;7.10;;;25.90;60.70;;;;;;5065306;28;20460;-74
2022/08/01 09:50:46;;;;;;;10.20;7.37;;;25.70;61.60;;;;;;5064890;28;20499;-72
2022/08/01 09:53:13;;;;;;;9.83;6.63;;;25.90;61.60;;;;;;5064459;28;20811;-74
2022/08/01 09:55:40;;;;;;;15.03;9.10;;;26.00;61.20;;;;;;5071139;28;20466;-72
2022/08/01 09:58:06;;;;;;;8.93;6.73;;;26.10;60.30;;;;;;5059429;28;20456;-72
2022/08/01 10:00:33;;;;;;;10.07;6.47;;;25.70;61.90;;;;;;5067749;28;20416;-72
2022/08/01 10:03:17;;;;;;;9.33;6.53;;;25.80;61.70;;;;;;5066742;28;20464;-72
2022/08/01 10:05:43;;;;;;;8.63;6.27;;;25.90;61.00;;;;;;5062413;28;20916;-73
2022/08/01 10:08:10;;;;;;;11.40;5.63;;;25.60;62.20;;;;;;5062974;28;20571;-73
2022/08/01 10:10:36;;;;;;;9.07;5.70;;;25.70;61.90;;;;;;5068732;28;20239;-71
2022/08/01 10:13:02;;;;;;;13.70;6.60;;;25.90;61.60;;;;;;5068033;28;20955;-73
2022/08/01 10:15:30;;;;;;;9.17;6.67;;;26.00;61.20;;;;;;5067748;28;20179;-73
2022/08/01 10:17:58;;;;;;;10.13;7.10;;;26.10;60.90;;;;;;5062140;28;20468;-73
2022/08/01 10:20:29;;;;;;;9.70;6.27;;;25.70;61.50;;;;;;5065071;28;20831;-72
2022/08/01 10:22:57;;;;;;;11.53;6.10;;;25.80;61.60;;;;;;5068462;28;20954;-71
2022/08/01 10:25:26;;;;;;;9.63;6.40;;;26.10;60.60;;;;;;5065970;28;20434;-74
2022/08/01 10:27:56;;;;;;;7.40;5.80;;;26.70;58.90;;;;;;5060258;28;20566;-72
2022/08/01 10:30:22;;;;;;;8.30;5.70;;;27.00;57.30;;;;;;5070463;28;20539;-71
2022/08/01 10:32:51;;;;;;;7.60;5.73;;;27.00;57.70;;;;;;5063126;28;20462;-73
2022/08/01 10:35:18;;;;;;;8.90;5.90;;;27.60;56.60;;;;;;5064839;28;20428;-73
2022/08/01 10:37:46;;;;;;;7.20;5.40;;;27.50;56.50;;;;;;5069262;28;20901;-71
2022/08/01 10:40:13;;;;;;;7.00;5.37;;;27.90;55.70;;;;;;5064342;28;20831;-74
2022/08/01 10:42:43;;;;;;;6.70;4.80;;;27.70;55.40;;;;;;5069653;28;20433;-72
2022/08/01 10:45:14;;;;;;;5.47;4.60;;;28.30;54.20;;;;;;5071165;28;20507;-75
2022/08/01 10:48:09;;;;;;;7.73;4.20;;;28.20;54.00;;;;;;5068747;28;20474;-75
2022/08/01 10:50:45;;;;;;;6.00;4.70;;;27.40;55.70;;;;;;5068766;28;20421;-74
2022/08/01 10:53:16;;;;;;;7.03;4.70;;;26.80;57.00;;;;;;5068122;28;20522;-72
2022/08/01 10:55:54;;;;;;;7.07;4.57;;;26.60;57.80;;;;;;5067088;28;20418;-72
2022/08/01 10:58:32;;;;;;;6.47;4.93;;;26.50;58.40;;;;;;5065013;28;20464;-72
2022/08/01 11:01:18;;;;;;;8.23;5.13;;;26.20;58.90;;;;;;5070771;28;20490;-71
2022/08/01 11:04:09;;;;;;;7.37;5.47;;;26.00;59.50;;;;;;5067993;28;20451;-73
2022/08/01 11:06:34;;;;;;;7.70;5.50;;;25.90;59.60;;;;;;5067910;28;20522;-73
2022/08/01 11:09:19;;;;;;;7.67;6.20;;;26.10;59.30;;;;;;5060346;28;20563;-73
2022/08/01 11:11:59;;;;;;;8.50;6.70;;;26.40;58.40;;;;;;5060465;28;20186;-72
2022/08/01 11:14:24;;;;;;;8.90;5.40;;;26.70;57.40;;;;;;5067842;28;20473;-72
2022/08/01 11:16:50;;;;;;;7.03;5.60;;;27.30;56.20;;;;;;5057131;28;20818;-71
2022/08/01 11:19:15;;;;;;;9.23;5.77;;;27.60;55.30;;;;;;5062167;28;20179;-73
2022/08/01 11:21:54;;;;;;;6.20;4.70;;;26.80;57.00;;;;;;5065373;28;20236;-73
2022/08/01 11:24:48;;;;;;;6.17;4.97;;;27.00;56.90;;;;;;5064875;28;20194;-73
2022/08/01 11:27:18;;;;;;;7.60;5.97;;;26.60;57.40;;;;;;5062946;28;20536;-71
2022/08/01 11:30:10;;;;;;;6.10;4.80;;;26.80;57.20;;;;;;5068018;28;20551;-72
2022/08/01 11:32:50;;;;;;;6.20;4.77;;;26.70;56.80;;;;;;5063536;28;20465;-71
2022/08/01 11:35:17;;;;;;;6.60;4.90;;;26.80;56.50;;;;;;5061360;28;20410;-72
2022/08/01 11:37:43;;;;;;;4.60;3.97;;;26.70;56.90;;;;;;5066602;28;20531;-72
2022/08/01 11:40:14;;;;;;;4.93;4.33;;;26.80;56.40;;;;;;5060125;28;20516;-74
2022/08/01 11:42:40;;;;;;;6.33;3.70;;;26.90;56.80;;;;;;5066489;28;20237;-72
2022/08/01 11:45:09;;;;;;;6.40;3.47;;;27.30;55.40;;;;;;5068999;28;20489;-73
2022/08/01 11:47:45;;;;;;;4.93;3.80;;;27.80;54.40;;;;;;5065489;28;20210;-72
2022/08/01 11:50:32;;;;;;;6.67;4.30;;;28.00;53.20;;;;;;5061477;28;20461;-72
2022/08/01 11:53:05;;;;;;;6.57;4.10;;;27.70;54.00;;;;;;5059252;28;20469;-73
2022/08/01 11:55:32;;;;;;;5.40;4.43;;;27.20;55.60;;;;;;5065738;28;20429;-71
2022/08/01 11:58:07;;;;;;;4.93;4.10;;;27.10;55.20;;;;;;5062499;28;20453;-72
2022/08/01 12:00:33;;;;;;;7.93;4.20;;;27.40;55.30;;;;;;5059779;28;20506;-71
2022/08/01 12:03:01;;;;;;;11.43;4.50;;;27.80;53.80;;;;;;5069852;28;20463;-72
2022/08/01 12:05:29;;;;;;;4.27;3.60;;;27.40;55.00;;;;;;5068723;28;20926;-73
2022/08/01 12:07:56;;;;;;;8.43;4.57;;;27.20;55.00;;;;;;5057312;28;20458;-74
2022/08/01 12:10:25;;;;;;;4.43;3.73;;;27.10;55.60;;;;;;5063501;28;20562;-72
2022/08/01 12:12:58;;;;;;;5.00;4.60;;;27.00;55.70;;;;;;5070450;28;20819;-72
2022/08/01 12:15:28;;;;;;;5.07;4.10;;;26.90;56.00;;;;;;5071397;28;20425;-71
2022/08/01 12:18:04;;;;;;;7.10;4.57;;;27.00;55.70;;;;;;5063143;28;20477;-73
2022/08/01 12:20:35;;;;;;;6.37;4.00;;;27.50;54.50;;;;;;5068403;28;20509;-74
2022/08/01 12:23:05;;;;;;;5.13;4.00;;;27.40;53.80;;;;;;5068949;28;20440;-72
2022/08/01 12:25:31;;;;;;;5.53;4.13;;;27.50;53.20;;;;;;5063993;28;20431;-71
2022/08/01 12:28:01;;;;;;;5.10;3.60;;;27.30;53.40;;;;;;5065670;28;20469;-75
2022/08/01 12:30:28;;;;;;;5.03;3.50;;;27.00;54.00;;;;;;5068896;28;20418;-71
2022/08/01 12:32:54;;;;;;;5.77;3.83;;;27.10;54.10;;;;;;5070331;28;20533;-73
2022/08/01 12:35:24;;;;;;;5.80;4.40;;;27.20;54.10;;;;;;5069248;28;20893;-73
2022/08/01 12:38:04;;;;;;;6.77;4.03;;;27.30;53.80;;;;;;5058721;28;20483;-73
2022/08/01 12:40:32;;;;;;;4.60;3.57;;;27.10;55.20;;;;;;5067716;28;20410;-71
2022/08/01 12:43:01;;;;;;;7.73;5.23;;;27.10;55.30;;;;;;5066716;28;20418;-73
2022/08/01 12:45:31;;;;;;;6.53;3.67;;;27.50;54.20;;;;;;5065386;28;20512;-72
2022/08/01 12:47:59;;;;;;;8.23;4.00;;;27.60;54.20;;;;;;5068147;28;20968;-73
2022/08/01 12:50:28;;;;;;;8.50;4.20;;;27.50;54.50;;;;;;5065548;28;20902;-73
2022/08/01 12:52:53;;;;;;;6.23;4.50;;;27.70;53.80;;;;;;5071726;28;20506;-72
2022/08/01 12:55:25;;;;;;;5.47;4.10;;;28.00;53.40;;;;;;5067729;28;20820;-72
2022/08/01 12:58:07;;;;;;;7.00;4.37;;;27.90;53.20;;;;;;5071209;28;20204;-73